createdAt,value
2019-02-27T00:00:54.534Z,4.80
2019-02-27T00:03:22.959Z,3.70
2019-02-27T00:05:51.462Z,3.33
2019-02-27T00:08:19.894Z,2.93
2019-02-27T00:10:48.385Z,3.03
2019-02-27T00:13:16.872Z,3.20
2019-02-27T00:15:47.078Z,3.00
2019-02-27T00:18:15.467Z,2.80
2019-02-27T00:20:44.096Z,2.90
2019-02-27T00:23:12.540Z,3.63
2019-02-27T00:25:41.044Z,3.10
2019-02-27T00:28:10.845Z,3.47
2019-02-27T00:30:39.465Z,2.80
2019-02-27T00:33:07.882Z,2.70
2019-02-27T00:35:38.653Z,3.30
2019-02-27T00:38:06.699Z,3.03
2019-02-27T00:40:38.607Z,3.10
2019-02-27T00:43:05.514Z,2.53
2019-02-27T00:45:34.010Z,2.47
2019-02-27T00:48:02.504Z,2.40
2019-02-27T00:50:30.909Z,2.80
2019-02-27T00:52:59.338Z,2.67
2019-02-27T00:55:28.040Z,2.37
2019-02-27T00:57:58.267Z,2.03
2019-02-27T01:00:26.757Z,1.97
2019-02-27T01:02:55.187Z,2.43
2019-02-27T01:05:23.593Z,2.37
2019-02-27T01:07:54.224Z,2.17
2019-02-27T01:10:22.618Z,2.10
2019-02-27T01:12:51.532Z,1.87
2019-02-27T01:15:20.031Z,1.83
2019-02-27T01:17:48.565Z,1.67
2019-02-27T01:20:17.054Z,2.20
2019-02-27T01:22:45.563Z,1.87
2019-02-27T01:25:15.964Z,2.50
2019-02-27T01:27:45.828Z,2.37
2019-02-27T01:30:14.443Z,2.20
2019-02-27T01:32:42.834Z,1.73
2019-02-27T01:35:11.888Z,1.40
2019-02-27T01:37:40.265Z,1.63
2019-02-27T01:40:10.888Z,1.60
2019-02-27T01:42:39.287Z,1.90
2019-02-27T01:45:12.870Z,1.60
2019-02-27T01:47:41.373Z,2.03
2019-02-27T01:50:28.145Z,2.10
2019-02-27T01:52:56.550Z,1.90
2019-02-27T01:55:24.942Z,1.60
2019-02-27T01:57:54.053Z,2.17
2019-02-27T02:00:23.313Z,1.80
2019-02-27T02:02:52.420Z,2.67
2019-02-27T02:05:20.815Z,1.93
2019-02-27T02:07:49.214Z,2.67
2019-02-27T02:10:17.872Z,2.03
2019-02-27T02:12:51.545Z,1.90
2019-02-27T02:15:35.717Z,2.33
2019-02-27T02:19:18.990Z,2.03
2019-02-27T02:22:48.412Z,2.30
2019-02-27T02:26:13.648Z,2.73
2019-02-27T02:29:38.882Z,2.90
2019-02-27T02:32:23.000Z,2.50
2019-02-27T02:35:52.629Z,2.20
2019-02-27T02:39:04.101Z,2.73
2019-02-27T02:42:35.261Z,2.97
2019-02-27T02:45:32.743Z,2.20
2019-02-27T02:48:42.575Z,2.20
2019-02-27T02:52:09.074Z,2.50
2019-02-27T02:54:56.559Z,1.90
2019-02-27T02:58:12.801Z,2.23
2019-02-27T03:01:16.845Z,2.60
2019-02-27T03:04:51.160Z,2.63
2019-02-27T03:08:11.487Z,2.20
2019-02-27T03:11:23.392Z,2.40
2019-02-27T03:14:57.906Z,2.20
2019-02-27T03:18:45.071Z,1.70
2019-02-27T03:22:15.515Z,1.73
2019-02-27T03:25:40.715Z,1.90
2019-02-27T03:28:57.910Z,2.00
2019-02-27T03:31:59.951Z,2.13
2019-02-27T03:35:28.010Z,1.90
2019-02-27T03:38:41.418Z,2.60
2019-02-27T03:42:08.449Z,2.00
2019-02-27T03:44:59.856Z,2.67
2019-02-27T03:48:43.192Z,2.33
2019-02-27T03:51:27.956Z,2.03
2019-02-27T03:54:34.551Z,2.00
2019-02-27T03:57:56.118Z,1.60
2019-02-27T04:00:53.816Z,2.20
2019-02-27T04:03:38.370Z,2.03
2019-02-27T04:07:13.267Z,2.10
2019-02-27T04:09:41.849Z,2.27
2019-02-27T04:12:15.960Z,3.27
2019-02-27T04:14:42.132Z,1.90
2019-02-27T04:17:12.203Z,2.20
2019-02-27T04:19:41.097Z,2.20
2019-02-27T04:22:09.752Z,1.90
2019-02-27T04:24:38.223Z,2.07
2019-02-27T04:27:06.650Z,1.80
2019-02-27T04:29:35.144Z,1.90
2019-02-27T04:32:03.645Z,1.93
2019-02-27T04:34:33.792Z,2.17
2019-02-27T04:37:02.391Z,2.20
2019-02-27T04:39:30.872Z,2.67
2019-02-27T04:41:59.263Z,2.30
2019-02-27T04:44:30.116Z,2.50
2019-02-27T04:46:58.519Z,2.20
2019-02-27T04:49:26.920Z,2.63
2019-02-27T04:51:55.338Z,2.30
2019-02-27T04:54:23.846Z,2.10
2019-02-27T04:56:52.256Z,2.40
2019-02-27T04:59:20.661Z,2.50
2019-02-27T05:01:49.151Z,3.03
2019-02-27T05:04:18.067Z,2.17
2019-02-27T05:06:47.840Z,2.80
2019-02-27T05:09:16.368Z,2.63
2019-02-27T05:11:47.587Z,3.00
2019-02-27T05:14:17.999Z,3.83
2019-02-27T05:16:48.189Z,3.63
2019-02-27T05:19:16.810Z,2.47
2019-02-27T05:21:45.314Z,2.77
2019-02-27T05:24:15.230Z,3.07
2019-02-27T05:26:45.425Z,2.60
2019-02-27T05:29:15.819Z,2.73
2019-02-27T05:31:44.495Z,3.47
2019-02-27T05:34:14.758Z,2.70
2019-02-27T05:36:43.378Z,3.20
2019-02-27T05:39:12.057Z,3.00
2019-02-27T05:41:40.556Z,3.60
2019-02-27T05:44:12.427Z,2.70
2019-02-27T05:46:41.118Z,2.90
2019-02-27T05:49:11.024Z,2.50
2019-02-27T05:51:39.525Z,2.63
2019-02-27T05:54:08.321Z,3.13
2019-02-27T05:56:37.061Z,3.13
2019-02-27T05:59:05.683Z,2.93
2019-02-27T06:01:37.753Z,4.43
2019-02-27T06:04:04.827Z,3.17
2019-02-27T06:06:33.411Z,3.90
2019-02-27T06:09:01.943Z,3.60
2019-02-27T06:11:33.059Z,4.10
2019-02-27T06:14:01.036Z,3.47
2019-02-27T06:16:30.092Z,3.30
2019-02-27T06:18:59.249Z,2.90
2019-02-27T06:21:27.935Z,3.70
2019-02-27T06:23:57.560Z,3.30
2019-02-27T06:26:26.096Z,3.83
2019-02-27T06:28:54.936Z,3.50
2019-02-27T06:31:23.750Z,5.20
2019-02-27T06:33:53.974Z,9.03
2019-02-27T06:36:23.461Z,7.27
2019-02-27T06:38:52.626Z,6.43
2019-02-27T06:41:21.176Z,5.57
2019-02-27T06:43:49.779Z,6.80
2019-02-27T06:46:20.066Z,5.80
2019-02-27T06:48:49.385Z,5.23
2019-02-27T06:51:17.984Z,5.40
2019-02-27T06:53:46.995Z,6.40
2019-02-27T06:56:15.695Z,6.77
2019-02-27T06:58:44.388Z,7.03
2019-02-27T07:01:14.584Z,7.63
2019-02-27T07:03:43.080Z,7.93
2019-02-27T07:06:11.480Z,7.10
2019-02-27T07:08:39.990Z,8.03
2019-02-27T07:11:10.958Z,8.43
2019-02-27T07:13:39.586Z,8.37
2019-02-27T07:16:08.270Z,9.53
2019-02-27T07:18:41.436Z,8.23
2019-02-27T07:21:09.623Z,7.73
2019-02-27T07:23:39.856Z,8.00
2019-02-27T07:26:09.253Z,8.03
2019-02-27T07:28:43.222Z,7.60
2019-02-27T07:31:09.853Z,4.80
2019-02-27T07:33:40.565Z,5.20
2019-02-27T07:36:08.647Z,4.47
2019-02-27T07:38:38.827Z,4.83
2019-02-27T07:41:07.310Z,5.00
2019-02-27T07:43:35.712Z,5.40
2019-02-27T07:46:04.195Z,6.03
2019-02-27T07:48:32.805Z,5.10
2019-02-27T07:51:01.591Z,6.50
2019-02-27T07:53:30.120Z,6.40
2019-02-27T07:55:58.689Z,6.30
2019-02-27T07:58:29.277Z,6.80
2019-02-27T08:00:57.506Z,7.20
2019-02-27T08:03:26.025Z,7.30
2019-02-27T08:05:55.125Z,7.20
2019-02-27T08:08:24.324Z,7.37
2019-02-27T08:10:53.924Z,8.10
2019-02-27T08:13:22.796Z,6.93
2019-02-27T08:15:51.294Z,7.80
2019-02-27T08:18:29.511Z,7.50
2019-02-27T08:20:52.138Z,8.50
2019-02-27T08:23:21.563Z,8.43
2019-02-27T08:25:50.057Z,7.47
2019-02-27T08:28:20.263Z,7.33
2019-02-27T08:30:48.748Z,6.87
2019-02-27T08:33:17.176Z,7.27
2019-02-27T08:35:46.160Z,6.10
2019-02-27T08:38:14.862Z,6.00
2019-02-27T08:40:43.253Z,7.53
2019-02-27T08:43:11.668Z,6.70
2019-02-27T08:45:40.147Z,12.33
2019-02-27T08:48:08.625Z,7.73
2019-02-27T08:50:37.793Z,11.27
2019-02-27T08:53:06.759Z,11.07
2019-02-27T08:55:38.992Z,8.90
2019-02-27T08:58:07.145Z,6.97
2019-02-27T09:00:38.384Z,10.83
2019-02-27T09:03:07.010Z,7.80
2019-02-27T09:05:35.715Z,7.30
2019-02-27T09:08:07.350Z,8.63
2019-02-27T09:10:35.918Z,7.20
2019-02-27T09:13:05.871Z,8.27
2019-02-27T09:15:35.035Z,8.10
2019-02-27T09:18:03.542Z,9.63
2019-02-27T09:20:33.148Z,7.93
2019-02-27T09:23:03.421Z,11.70
2019-02-27T09:25:31.929Z,12.90
2019-02-27T09:28:03.474Z,9.17
2019-02-27T09:30:32.327Z,9.07
2019-02-27T09:33:00.824Z,11.47
2019-02-27T09:35:32.220Z,6.90
2019-02-27T09:37:59.721Z,7.20
2019-02-27T09:40:29.631Z,11.17
2019-02-27T09:42:58.815Z,7.97
2019-02-27T09:45:29.796Z,8.80
2019-02-27T09:47:59.946Z,8.50
2019-02-27T09:50:32.417Z,9.13
2019-02-27T09:53:03.617Z,7.53
2019-02-27T09:55:34.712Z,7.70
2019-02-27T09:58:10.101Z,15.10
2019-02-27T10:01:02.929Z,9.67
2019-02-27T10:03:30.107Z,12.83
2019-02-27T10:05:58.586Z,13.10
2019-02-27T10:08:27.079Z,10.03
2019-02-27T10:10:55.459Z,8.40
2019-02-27T10:13:23.865Z,10.17
2019-02-27T10:15:52.352Z,12.40
2019-02-27T10:18:22.084Z,9.13
2019-02-27T10:20:52.446Z,20.43
2019-02-27T10:23:22.628Z,15.67
2019-02-27T10:25:51.307Z,16.13
2019-02-27T10:28:19.807Z,17.20
2019-02-27T10:30:49.937Z,15.57
2019-02-27T10:33:18.619Z,9.60
2019-02-27T10:35:47.555Z,8.90
2019-02-27T10:38:16.013Z,9.13
2019-02-27T10:40:46.014Z,10.47
2019-02-27T10:43:15.027Z,10.60
2019-02-27T10:45:48.224Z,11.83
2019-02-27T10:48:15.625Z,8.87
2019-02-27T10:50:44.931Z,12.63
2019-02-27T10:53:14.532Z,12.27
2019-02-27T10:55:43.117Z,11.40
2019-02-27T10:58:13.299Z,11.10
2019-02-27T11:00:46.298Z,12.63
2019-02-27T11:03:15.020Z,10.40
2019-02-27T11:05:43.414Z,9.60
2019-02-27T11:08:11.890Z,10.13
2019-02-27T11:10:40.390Z,15.00
2019-02-27T11:13:08.791Z,10.50
2019-02-27T11:15:40.837Z,12.20
2019-02-27T11:18:08.467Z,8.67
2019-02-27T11:20:36.961Z,8.63
2019-02-27T11:23:07.006Z,8.60
2019-02-27T11:25:37.574Z,9.13
2019-02-27T11:28:06.376Z,9.30
2019-02-27T11:30:36.797Z,9.20
2019-02-27T11:33:05.787Z,10.00
2019-02-27T11:35:34.158Z,9.60
2019-02-27T11:38:04.359Z,13.57
2019-02-27T11:40:32.830Z,9.40
2019-02-27T11:43:06.355Z,13.27
2019-02-27T11:45:35.218Z,11.70
2019-02-27T11:48:04.028Z,11.53
2019-02-27T11:50:34.227Z,13.93
2019-02-27T11:53:03.062Z,11.60
2019-02-27T11:55:33.396Z,9.43
2019-02-27T11:58:04.389Z,13.50
2019-02-27T12:00:33.099Z,10.23
2019-02-27T12:03:02.715Z,13.07
2019-02-27T12:05:34.025Z,15.13
2019-02-27T12:08:03.667Z,14.20
2019-02-27T12:10:33.876Z,15.33
2019-02-27T12:13:02.274Z,9.00
2019-02-27T12:15:30.658Z,10.30
2019-02-27T12:18:00.616Z,10.43
2019-02-27T12:20:29.861Z,12.83
2019-02-27T12:22:58.380Z,12.47
2019-02-27T12:25:29.675Z,16.30
2019-02-27T12:27:57.099Z,10.73
2019-02-27T12:30:26.647Z,12.40
2019-02-27T12:32:56.690Z,10.17
2019-02-27T12:35:27.954Z,10.50
2019-02-27T12:37:56.443Z,8.67
2019-02-27T12:40:25.251Z,15.03
2019-02-27T12:42:53.840Z,11.40
2019-02-27T12:45:25.765Z,10.70
2019-02-27T12:47:55.017Z,9.70
2019-02-27T12:50:27.049Z,9.47
2019-02-27T12:52:56.191Z,13.47
2019-02-27T12:55:24.987Z,13.70
2019-02-27T12:57:53.575Z,10.13
2019-02-27T13:00:26.453Z,9.30
2019-02-27T13:02:55.009Z,10.20
2019-02-27T13:05:27.343Z,15.00
2019-02-27T13:07:55.553Z,10.63
2019-02-27T13:10:23.949Z,10.57
2019-02-27T13:12:52.642Z,10.90
2019-02-27T13:15:22.183Z,12.37
2019-02-27T13:17:56.198Z,13.37
2019-02-27T13:20:23.348Z,16.50
2019-02-27T13:22:51.855Z,14.73
2019-02-27T13:25:24.111Z,11.03
2019-02-27T13:27:52.622Z,9.60
2019-02-27T13:30:21.298Z,8.70
2019-02-27T13:32:49.705Z,9.10
2019-02-27T13:35:20.140Z,14.00
2019-02-27T13:37:49.325Z,10.10
2019-02-27T13:40:19.042Z,10.40
2019-02-27T13:42:52.426Z,14.93
2019-02-27T13:45:22.088Z,12.80
2019-02-27T13:47:50.525Z,12.00
2019-02-27T13:50:22.160Z,15.17
2019-02-27T13:52:50.909Z,13.30
2019-02-27T13:55:19.791Z,10.90
2019-02-27T13:57:48.189Z,10.53
2019-02-27T14:00:25.607Z,10.10
2019-02-27T14:02:53.535Z,11.07
2019-02-27T14:05:22.236Z,9.90
2019-02-27T14:07:50.661Z,11.23
2019-02-27T14:10:20.718Z,7.87
2019-02-27T14:12:49.447Z,9.67
2019-02-27T14:15:18.300Z,13.20
2019-02-27T14:17:48.505Z,13.23
2019-02-27T14:20:18.435Z,12.30
2019-02-27T14:22:47.721Z,16.40
2019-02-27T14:25:19.020Z,11.37
2019-02-27T14:27:48.152Z,11.43
2019-02-27T14:30:19.789Z,11.00
2019-02-27T14:32:48.298Z,15.50
2019-02-27T14:35:16.732Z,10.20
2019-02-27T14:37:49.551Z,10.60
2019-02-27T14:40:17.245Z,8.90
2019-02-27T14:42:46.623Z,10.10
2019-02-27T14:45:18.658Z,10.40
2019-02-27T14:47:48.035Z,11.57
2019-02-27T14:50:19.002Z,9.10
2019-02-27T14:52:47.476Z,10.63
2019-02-27T14:55:18.371Z,12.50
2019-02-27T14:57:51.144Z,10.17
2019-02-27T15:00:24.946Z,14.50
2019-02-27T15:02:55.617Z,12.83
2019-02-27T15:05:24.477Z,13.00
2019-02-27T15:07:54.644Z,12.07
2019-02-27T15:10:25.263Z,8.30
2019-02-27T15:12:55.388Z,11.33
2019-02-27T15:15:26.699Z,10.93
2019-02-27T15:17:55.189Z,8.73
2019-02-27T15:20:25.112Z,7.90
2019-02-27T15:22:53.788Z,7.73
2019-02-27T15:25:24.038Z,9.20
2019-02-27T15:27:58.340Z,9.20
2019-02-27T15:30:27.506Z,10.20
2019-02-27T15:33:03.704Z,13.30
2019-02-27T15:35:30.659Z,9.60
2019-02-27T15:37:59.135Z,12.80
2019-02-27T15:40:29.654Z,12.67
2019-02-27T15:42:58.560Z,16.80
2019-02-27T15:45:27.462Z,11.73
2019-02-27T15:47:57.648Z,8.27
2019-02-27T15:50:26.232Z,7.90
2019-02-27T15:52:54.615Z,10.13
2019-02-27T15:55:23.025Z,10.87
2019-02-27T15:57:53.803Z,9.97
2019-02-27T16:00:22.325Z,10.27
2019-02-27T16:02:50.729Z,14.30
2019-02-27T16:05:19.123Z,10.50
2019-02-27T16:07:49.502Z,14.00
2019-02-27T16:10:19.784Z,14.37
2019-02-27T16:12:48.312Z,13.10
2019-02-27T16:15:17.848Z,14.80
2019-02-27T16:17:46.420Z,14.37
2019-02-27T16:20:16.859Z,13.40
2019-02-27T16:22:45.295Z,15.30
2019-02-27T16:25:19.770Z,18.73
2019-02-27T16:27:47.345Z,19.00
2019-02-27T16:30:23.921Z,16.40
2019-02-27T16:32:52.418Z,15.57
2019-02-27T16:35:20.920Z,13.87
2019-02-27T16:37:49.617Z,11.50
2019-02-27T16:40:19.026Z,8.67
2019-02-27T16:42:47.669Z,8.20
2019-02-27T16:45:18.906Z,7.30
2019-02-27T16:47:47.282Z,7.90
2019-02-27T16:50:24.307Z,7.77
2019-02-27T16:52:51.223Z,7.60
2019-02-27T16:55:21.241Z,9.30
2019-02-27T16:57:49.823Z,9.67
2019-02-27T17:00:21.768Z,10.40
2019-02-27T17:02:50.159Z,11.97
2019-02-27T17:05:20.438Z,13.80
2019-02-27T17:07:48.889Z,16.10
2019-02-27T17:10:21.029Z,15.67
2019-02-27T17:12:49.432Z,17.30
2019-02-27T17:15:17.828Z,15.97
2019-02-27T17:17:46.476Z,17.00
2019-02-27T17:20:17.705Z,16.20
2019-02-27T17:22:47.939Z,18.00
2019-02-27T17:25:16.419Z,23.63
2019-02-27T17:27:49.943Z,22.87
2019-02-27T17:30:20.591Z,20.10
2019-02-27T17:32:49.077Z,20.40
2019-02-27T17:35:17.491Z,21.23
2019-02-27T17:37:45.975Z,21.13
2019-02-27T17:40:16.427Z,19.10
2019-02-27T17:42:46.983Z,16.93
2019-02-27T17:45:17.363Z,14.93
2019-02-27T17:47:46.045Z,13.60
2019-02-27T17:50:14.809Z,12.60
2019-02-27T17:52:43.244Z,13.80
2019-02-27T17:55:12.952Z,14.20
2019-02-27T17:57:41.453Z,16.30
2019-02-27T18:00:18.181Z,17.30
2019-02-27T18:02:46.576Z,15.97
2019-02-27T18:05:15.187Z,15.83
2019-02-27T18:07:43.807Z,15.20
2019-02-27T18:10:12.303Z,15.90
2019-02-27T18:12:40.836Z,15.33
2019-02-27T18:15:11.633Z,17.60
2019-02-27T18:17:49.104Z,15.47
2019-02-27T18:20:29.134Z,16.00
2019-02-27T18:22:57.979Z,14.47
2019-02-27T18:25:26.363Z,15.23
2019-02-27T18:27:58.583Z,14.83
2019-02-27T18:30:26.274Z,16.63
2019-02-27T18:32:54.706Z,18.57
2019-02-27T18:35:23.137Z,20.83
2019-02-27T18:37:54.299Z,19.57
2019-02-27T18:40:23.155Z,19.37
2019-02-27T18:42:55.164Z,17.20
2019-02-27T18:45:22.242Z,17.70
2019-02-27T18:47:51.127Z,19.63
2019-02-27T18:50:20.133Z,16.47
2019-02-27T18:52:49.300Z,17.77
2019-02-27T18:55:19.581Z,19.50
2019-02-27T18:57:48.168Z,18.40
2019-02-27T19:00:20.479Z,17.67
2019-02-27T19:02:52.005Z,18.57
2019-02-27T19:05:21.754Z,17.80
2019-02-27T19:07:53.629Z,16.33
2019-02-27T19:10:21.324Z,16.33
2019-02-27T19:12:51.695Z,15.83
2019-02-27T19:15:22.077Z,13.80
2019-02-27T19:17:51.180Z,16.13
2019-02-27T19:20:24.897Z,14.30
2019-02-27T19:22:53.842Z,16.53
2019-02-27T19:25:23.017Z,15.33
2019-02-27T19:27:51.937Z,15.27
2019-02-27T19:30:22.480Z,15.23
2019-02-27T19:32:51.208Z,14.60
2019-02-27T19:35:22.417Z,13.57
2019-02-27T19:37:51.798Z,13.17
2019-02-27T19:40:20.840Z,16.10
2019-02-27T19:43:01.036Z,14.97
2019-02-27T19:45:30.291Z,14.10
2019-02-27T19:47:58.738Z,15.10
2019-02-27T19:50:27.298Z,14.00
2019-02-27T19:52:56.063Z,13.47
2019-02-27T19:55:27.409Z,13.93
2019-02-27T19:57:54.975Z,13.10
2019-02-27T20:00:25.478Z,13.80
2019-02-27T20:02:57.881Z,13.10
2019-02-27T20:05:24.797Z,13.40
2019-02-27T20:07:53.290Z,11.57
2019-02-27T20:10:22.265Z,12.10
2019-02-27T20:12:52.919Z,13.17
2019-02-27T20:15:23.414Z,15.17
2019-02-27T20:17:52.761Z,18.20
2019-02-27T20:20:22.507Z,17.20
2019-02-27T20:22:53.366Z,16.63
2019-02-27T20:25:23.132Z,15.60
2019-02-27T20:27:53.816Z,14.00
2019-02-27T20:30:23.482Z,14.33
2019-02-27T20:32:52.667Z,13.87
2019-02-27T20:35:23.261Z,13.70
2019-02-27T20:37:51.708Z,13.40
2019-02-27T20:40:20.258Z,13.83
2019-02-27T20:42:50.784Z,11.97
2019-02-27T20:45:19.552Z,14.53
2019-02-27T20:47:48.092Z,12.97
2019-02-27T20:50:26.851Z,15.03
2019-02-27T20:52:51.936Z,12.90
2019-02-27T20:55:20.951Z,12.90
2019-02-27T20:57:49.393Z,13.50
2019-02-27T21:00:19.965Z,14.23
2019-02-27T21:02:50.325Z,14.33
2019-02-27T21:05:20.667Z,13.90
2019-02-27T21:07:49.497Z,14.20
2019-02-27T21:10:20.876Z,13.47
2019-02-27T21:12:54.090Z,14.30
2019-02-27T21:15:21.032Z,13.93
2019-02-27T21:17:49.570Z,13.90
2019-02-27T21:20:18.440Z,15.60
2019-02-27T21:22:47.179Z,14.73
2019-02-27T21:25:16.470Z,13.30
2019-02-27T21:27:45.409Z,15.00
2019-02-27T21:30:18.867Z,15.60
2019-02-27T21:32:47.983Z,14.10
2019-02-27T21:35:16.571Z,12.90
2019-02-27T21:37:47.089Z,14.50
2019-02-27T21:40:15.517Z,15.67
2019-02-27T21:42:45.954Z,14.20
2019-02-27T21:45:15.426Z,12.93
2019-02-27T21:47:46.147Z,13.93
2019-02-27T21:50:16.326Z,13.43
2019-02-27T21:52:46.578Z,12.57
2019-02-27T21:55:15.186Z,13.23
2019-02-27T21:57:44.357Z,13.13
2019-02-27T22:00:18.240Z,11.70
2019-02-27T22:02:46.738Z,12.47
2019-02-27T22:05:18.904Z,10.70
2019-02-27T22:07:45.970Z,11.63
2019-02-27T22:10:18.987Z,10.17
2019-02-27T22:12:45.010Z,12.23
2019-02-27T22:15:21.942Z,12.70
2019-02-27T22:17:48.158Z,14.63
2019-02-27T22:20:16.716Z,13.37
2019-02-27T22:22:45.123Z,20.47
2019-02-27T22:25:13.619Z,21.13
2019-02-27T22:27:43.294Z,16.80
2019-02-27T22:30:15.013Z,15.40
2019-02-27T22:32:47.634Z,16.07
2019-02-27T22:35:13.949Z,15.40
2019-02-27T22:37:42.460Z,16.60
2019-02-27T22:40:14.442Z,17.37
2019-02-27T22:42:45.578Z,17.50
2019-02-27T22:45:14.359Z,16.77
2019-02-27T22:47:42.764Z,16.00
2019-02-27T22:50:13.336Z,14.70
2019-02-27T22:52:41.839Z,14.43
2019-02-27T22:55:10.884Z,14.40
2019-02-27T22:57:39.495Z,14.23
2019-02-27T23:00:56.059Z,13.57
2019-02-27T23:03:26.680Z,16.00
2019-02-27T23:05:55.124Z,18.07
2019-02-27T23:08:24.157Z,18.40
2019-02-27T23:10:54.334Z,16.73
2019-02-27T23:13:22.847Z,17.45
2019-02-27T23:15:57.791Z,17.95
2019-02-27T23:18:23.587Z,16.93
2019-02-27T23:20:52.596Z,17.52
2019-02-27T23:23:22.307Z,18.02
2019-02-27T23:25:50.789Z,17.90
2019-02-27T23:28:19.298Z,14.58
2019-02-27T23:30:49.517Z,15.90
2019-02-27T23:33:18.031Z,15.03
2019-02-27T23:35:47.342Z,13.70
2019-02-27T23:38:17.175Z,15.03
2019-02-27T23:40:48.967Z,11.90
2019-02-27T23:43:16.308Z,14.68
2019-02-27T23:45:46.318Z,14.30
2019-02-27T23:48:14.704Z,16.00
2019-02-27T23:50:43.334Z,16.48
2019-02-27T23:53:11.859Z,15.25
2019-02-27T23:55:44.621Z,17.23
2019-02-27T23:58:11.913Z,16.10
